Time;durP1;ratioP1;P1;durP2;ratioP2;P2;SDS_P1;SDS_P2;PMS_P1;PMS_P2;Temp;Humidity;BMP_temperature;BMP_pressure;BME280_temperature;BME280_humidity;BME280_pressure;Samples;Min_cycle;Max_cycle;Signal;HPM_P1;HPM_P2
2021/12/30 00:01:06;;;;;;;;;;;20.90;44.80;;;;;;487371;243;1195;-75
2021/12/30 00:03:08;;;;;;;;;;;21.20;44.60;;;;;;487388;243;1128;-75
2021/12/30 00:05:08;;;;;;;;;;;21.00;44.70;;;;;;487423;243;1435;-75
2021/12/30 00:07:10;;;;;;;;;;;20.90;45.20;;;;;;487322;243;2186;-75
2021/12/30 00:09:11;;;;;;;;;;;21.30;44.50;;;;;;487398;243;1151;-75
2021/12/30 00:11:12;;;;;;;;;;;21.30;44.20;;;;;;487323;243;1288;-75
2021/12/30 00:13:13;;;;;;;;;;;21.30;44.40;;;;;;487366;243;1079;-75
2021/12/30 00:15:15;;;;;;;;;;;21.00;44.70;;;;;;487412;243;1147;-75
2021/12/30 00:17:16;;;;;;;;;;;21.10;44.90;;;;;;487482;243;1251;-75
2021/12/30 00:19:17;;;;;;;;;;;21.10;45.00;;;;;;487437;243;1050;-75
2021/12/30 00:21:20;;;;;;;;;;;21.20;44.80;;;;;;487376;243;1228;-75
2021/12/30 00:23:20;;;;;;;;;;;21.10;44.80;;;;;;487495;243;1355;-75
2021/12/30 00:25:21;;;;;;;;;;;21.20;44.70;;;;;;487444;243;2175;-75
2021/12/30 00:27:23;;;;;;;;;;;21.10;45.00;;;;;;487379;243;1123;-75
2021/12/30 00:29:24;;;;;;;;;;;20.90;45.20;;;;;;487443;243;1190;-75
2021/12/30 00:31:26;;;;;;;;;;;20.90;45.40;;;;;;487337;240;1267;-75
2021/12/30 00:33:27;;;;;;;;;;;21.10;45.20;;;;;;487482;243;1119;-75
2021/12/30 00:35:28;;;;;;;;;;;21.10;45.40;;;;;;487441;243;959;-75
2021/12/30 00:37:30;;;;;;;;;;;20.90;45.30;;;;;;487299;243;1096;-75
2021/12/30 00:39:31;;;;;;;;;;;21.10;45.30;;;;;;487474;243;943;-75
2021/12/30 00:41:32;;;;;;;;;;;21.00;45.30;;;;;;487370;243;1198;-75
2021/12/30 00:43:34;;;;;;;;;;;21.10;45.30;;;;;;487415;243;972;-75
2021/12/30 00:45:35;;;;;;;;;;;21.00;45.50;;;;;;487474;243;2202;-75
2021/12/30 00:47:36;;;;;;;;;;;20.90;45.70;;;;;;487395;243;1220;-75
2021/12/30 00:49:38;;;;;;;;;;;21.00;45.70;;;;;;487434;243;966;-75
2021/12/30 00:51:39;;;;;;;;;;;20.90;45.90;;;;;;487311;243;1211;-75
2021/12/30 00:53:41;;;;;;;;;;;20.80;46.00;;;;;;487416;243;971;-75
2021/12/30 00:55:42;;;;;;;;;;;20.90;45.90;;;;;;487418;243;1131;-75
2021/12/30 00:57:44;;;;;;;;;;;20.90;45.90;;;;;;487471;243;1065;-75
2021/12/30 00:59:45;;;;;;;;;;;20.80;46.00;;;;;;487412;243;1168;-75
2021/12/30 01:01:46;;;;;;;;;;;20.90;45.90;;;;;;487295;243;1217;-75
2021/12/30 01:03:48;;;;;;;;;;;20.90;45.80;;;;;;487390;243;1131;-75
2021/12/30 01:05:49;;;;;;;;;;;20.90;45.80;;;;;;487361;243;2186;-75
2021/12/30 01:07:50;;;;;;;;;;;21.00;45.90;;;;;;487319;243;1098;-75
2021/12/30 01:09:52;;;;;;;;;;;21.20;45.60;;;;;;487472;243;970;-75
2021/12/30 01:11:55;;;;;;;;;;;21.00;45.80;;;;;;487337;243;1090;-75
2021/12/30 01:14:01;;;;;;;;;;;21.10;46.00;;;;;;487298;244;1468;-75
2021/12/30 01:16:00;;;;;;;;;;;21.10;45.90;;;;;;487009;244;1431;-75
2021/12/30 01:18:22;;;;;;;;;;;20.80;46.30;;;;;;487265;243;1439;-75
2021/12/30 01:20:01;;;;;;;;;;;20.90;46.30;;;;;;486029;245;1169;-75
2021/12/30 01:22:02;;;;;;;;;;;21.10;46.00;;;;;;487326;243;1092;-75
2021/12/30 01:24:03;;;;;;;;;;;21.10;45.90;;;;;;487401;243;953;-75
2021/12/30 01:26:05;;;;;;;;;;;21.10;45.90;;;;;;487396;240;2198;-75
2021/12/30 01:28:06;;;;;;;;;;;21.00;46.10;;;;;;487384;243;1138;-75
2021/12/30 01:30:07;;;;;;;;;;;20.90;46.40;;;;;;487506;243;1240;-75
2021/12/30 01:32:09;;;;;;;;;;;20.60;47.00;;;;;;487344;243;1039;-75
2021/12/30 01:34:11;;;;;;;;;;;20.90;46.90;;;;;;487386;243;970;-75
2021/12/30 01:36:11;;;;;;;;;;;21.00;46.40;;;;;;487159;244;1446;-75
2021/12/30 01:38:15;;;;;;;;;;;20.90;46.50;;;;;;487328;243;1002;-75
2021/12/30 01:40:16;;;;;;;;;;;21.00;46.70;;;;;;487290;244;1952;-75
2021/12/30 01:42:15;;;;;;;;;;;21.00;46.30;;;;;;487283;244;1458;-75
2021/12/30 01:44:17;;;;;;;;;;;21.00;46.60;;;;;;487428;243;1125;-75
2021/12/30 01:46:18;;;;;;;;;;;20.70;46.90;;;;;;487234;243;2198;-75
2021/12/30 01:48:20;;;;;;;;;;;20.90;46.80;;;;;;487503;243;1063;-75
2021/12/30 01:50:21;;;;;;;;;;;21.10;46.50;;;;;;487340;244;1422;-75
2021/12/30 01:52:22;;;;;;;;;;;21.00;46.60;;;;;;487381;243;1153;-75
2021/12/30 01:54:23;;;;;;;;;;;21.00;46.50;;;;;;487423;243;976;-76
2021/12/30 01:56:24;;;;;;;;;;;21.20;46.20;;;;;;487333;243;1186;-75
2021/12/30 01:58:26;;;;;;;;;;;21.10;46.30;;;;;;487416;243;1112;-75
2021/12/30 02:00:27;;;;;;;;;;;21.30;45.80;;;;;;487425;243;1157;-75
2021/12/30 02:02:29;;;;;;;;;;;21.20;46.30;;;;;;487300;243;1093;-75
2021/12/30 02:04:30;;;;;;;;;;;21.20;46.20;;;;;;487403;243;1082;-75
2021/12/30 02:06:31;;;;;;;;;;;21.10;46.30;;;;;;487320;243;2194;-75
2021/12/30 02:08:33;;;;;;;;;;;21.20;46.40;;;;;;487440;243;1101;-75
2021/12/30 02:10:34;;;;;;;;;;;21.20;46.30;;;;;;487361;243;1560;-75
2021/12/30 02:12:35;;;;;;;;;;;21.10;46.50;;;;;;487288;243;1043;-75
2021/12/30 02:14:37;;;;;;;;;;;21.10;46.50;;;;;;487383;243;1102;-75
2021/12/30 02:16:38;;;;;;;;;;;21.20;46.40;;;;;;487236;243;1223;-75
2021/12/30 02:18:39;;;;;;;;;;;21.20;46.50;;;;;;487364;243;1021;-75
2021/12/30 02:20:41;;;;;;;;;;;21.00;46.80;;;;;;487397;243;1304;-75
2021/12/30 02:22:42;;;;;;;;;;;21.10;46.70;;;;;;487312;243;1409;-75
2021/12/30 02:24:43;;;;;;;;;;;20.80;47.10;;;;;;487442;243;1206;-75
2021/12/30 02:26:44;;;;;;;;;;;21.00;47.20;;;;;;487463;243;2194;-75
2021/12/30 02:28:46;;;;;;;;;;;21.10;46.90;;;;;;487416;243;1086;-75
2021/12/30 02:30:47;;;;;;;;;;;21.10;47.10;;;;;;487432;243;1265;-75
2021/12/30 02:32:48;;;;;;;;;;;21.10;46.70;;;;;;487444;243;1036;-75
2021/12/30 02:34:50;;;;;;;;;;;20.90;47.10;;;;;;487494;243;1072;-75
2021/12/30 02:36:51;;;;;;;;;;;20.90;47.10;;;;;;487277;240;1217;-75
2021/12/30 02:38:53;;;;;;;;;;;21.00;47.30;;;;;;487402;243;937;-75
2021/12/30 02:40:54;;;;;;;;;;;21.10;47.20;;;;;;487372;243;1184;-75
2021/12/30 02:42:55;;;;;;;;;;;20.70;47.70;;;;;;487501;243;1248;-75
2021/12/30 02:44:56;;;;;;;;;;;21.20;46.80;;;;;;487426;243;932;-75
2021/12/30 02:46:58;;;;;;;;;;;21.00;47.00;;;;;;487286;243;2143;-75
2021/12/30 02:48:59;;;;;;;;;;;20.90;47.40;;;;;;487387;243;983;-75
2021/12/30 02:51:00;;;;;;;;;;;21.10;47.10;;;;;;487331;243;1167;-75
2021/12/30 02:53:02;;;;;;;;;;;21.30;46.90;;;;;;487528;243;1047;-75
2021/12/30 02:55:03;;;;;;;;;;;21.00;47.30;;;;;;487385;243;949;-75
2021/12/30 02:57:04;;;;;;;;;;;21.10;47.10;;;;;;487322;243;1329;-75
2021/12/30 02:59:06;;;;;;;;;;;21.20;47.10;;;;;;487385;243;1116;-75
2021/12/30 03:01:07;;;;;;;;;;;21.30;46.40;;;;;;487245;243;1190;-75
2021/12/30 03:03:08;;;;;;;;;;;21.40;46.60;;;;;;487337;243;1059;-75
2021/12/30 03:05:10;;;;;;;;;;;21.30;46.60;;;;;;487362;243;1208;-75
2021/12/30 03:07:11;;;;;;;;;;;21.10;47.00;;;;;;487321;243;2139;-75
2021/12/30 03:09:12;;;;;;;;;;;21.10;47.10;;;;;;487414;243;1120;-75
2021/12/30 03:11:14;;;;;;;;;;;21.10;47.20;;;;;;487397;243;1206;-75
2021/12/30 03:13:18;;;;;;;;;;;21.10;47.10;;;;;;487350;243;1060;-75
2021/12/30 03:15:16;;;;;;;;;;;21.10;47.30;;;;;;487351;244;1404;-75
2021/12/30 03:17:18;;;;;;;;;;;21.10;47.10;;;;;;487314;243;1107;-75
2021/12/30 03:19:19;;;;;;;;;;;21.10;47.20;;;;;;487417;243;1268;-75
2021/12/30 03:21:20;;;;;;;;;;;21.00;47.30;;;;;;487346;243;1091;-75
2021/12/30 03:23:22;;;;;;;;;;;21.10;47.20;;;;;;487478;243;1225;-75
2021/12/30 03:25:23;;;;;;;;;;;21.10;47.10;;;;;;487394;243;1010;-75
2021/12/30 03:27:24;;;;;;;;;;;21.00;47.40;;;;;;487386;243;2195;-75
2021/12/30 03:29:26;;;;;;;;;;;21.20;47.10;;;;;;487392;243;1054;-75
2021/12/30 03:31:27;;;;;;;;;;;21.10;47.20;;;;;;487224;243;1176;-75
2021/12/30 03:33:28;;;;;;;;;;;21.00;47.40;;;;;;487402;243;1114;-75
2021/12/30 03:35:29;;;;;;;;;;;21.20;47.20;;;;;;487386;243;1320;-75
2021/12/30 03:37:31;;;;;;;;;;;21.10;47.20;;;;;;487350;243;1130;-75
2021/12/30 03:39:32;;;;;;;;;;;21.10;47.30;;;;;;487399;243;1100;-75
2021/12/30 03:41:34;;;;;;;;;;;21.30;47.10;;;;;;487330;243;1196;-75
2021/12/30 03:43:35;;;;;;;;;;;21.00;47.30;;;;;;487446;243;1132;-75
2021/12/30 03:45:36;;;;;;;;;;;21.00;47.40;;;;;;487440;243;1226;-75
2021/12/30 03:47:38;;;;;;;;;;;21.00;47.40;;;;;;487360;243;2185;-75
2021/12/30 03:49:43;;;;;;;;;;;21.10;47.50;;;;;;487415;244;1254;-75
2021/12/30 03:51:40;;;;;;;;;;;20.90;47.80;;;;;;487099;244;1421;-75
2021/12/30 03:53:42;;;;;;;;;;;21.00;47.70;;;;;;487465;243;1083;-75
2021/12/30 03:55:43;;;;;;;;;;;21.40;47.00;;;;;;487574;243;1060;-75
2021/12/30 03:57:44;;;;;;;;;;;21.30;47.10;;;;;;487450;243;1173;-75
2021/12/30 03:59:46;;;;;;;;;;;21.10;47.30;;;;;;487452;243;993;-75
2021/12/30 04:01:47;;;;;;;;;;;21.30;47.00;;;;;;487405;243;1106;-75
2021/12/30 04:03:48;;;;;;;;;;;21.40;46.80;;;;;;487398;243;1215;-75
2021/12/30 04:05:49;;;;;;;;;;;20.80;47.60;;;;;;487392;243;1228;-75
2021/12/30 04:07:51;;;;;;;;;;;21.00;47.60;;;;;;487358;243;2127;-75
2021/12/30 04:09:52;;;;;;;;;;;21.00;47.60;;;;;;487474;243;940;-75
2021/12/30 04:11:53;;;;;;;;;;;21.00;47.70;;;;;;487368;243;1329;-75
2021/12/30 04:13:55;;;;;;;;;;;21.20;47.50;;;;;;487419;243;964;-75
2021/12/30 04:15:56;;;;;;;;;;;21.10;47.40;;;;;;487425;243;1177;-75
2021/12/30 04:17:57;;;;;;;;;;;21.10;47.40;;;;;;487404;243;1169;-75
2021/12/30 04:19:59;;;;;;;;;;;21.10;47.50;;;;;;487441;243;947;-75
2021/12/30 04:22:00;;;;;;;;;;;21.10;47.40;;;;;;487292;243;1115;-75
2021/12/30 04:24:01;;;;;;;;;;;21.20;47.30;;;;;;487371;243;1121;-75
2021/12/30 04:26:03;;;;;;;;;;;21.30;46.90;;;;;;487363;243;1207;-75
2021/12/30 04:28:04;;;;;;;;;;;21.20;47.10;;;;;;487408;243;2202;-75
2021/12/30 04:30:06;;;;;;;;;;;21.40;46.80;;;;;;487389;243;1175;-75
2021/12/30 04:32:07;;;;;;;;;;;21.10;47.30;;;;;;487387;243;1111;-75
2021/12/30 04:34:08;;;;;;;;;;;21.20;47.10;;;;;;487406;243;1131;-75
2021/12/30 04:36:09;;;;;;;;;;;21.30;47.00;;;;;;487371;243;1228;-75
2021/12/30 04:38:11;;;;;;;;;;;21.10;47.40;;;;;;487372;243;1214;-75
2021/12/30 04:40:12;;;;;;;;;;;21.30;47.00;;;;;;487415;243;1404;-75
2021/12/30 04:42:14;;;;;;;;;;;21.30;47.20;;;;;;487223;243;1108;-75
2021/12/30 04:44:15;;;;;;;;;;;21.10;47.40;;;;;;487404;243;953;-75
2021/12/30 04:46:16;;;;;;;;;;;21.10;47.50;;;;;;487263;243;1324;-75
2021/12/30 04:48:18;;;;;;;;;;;21.20;47.20;;;;;;487441;243;2115;-75
2021/12/30 04:50:19;;;;;;;;;;;21.00;47.70;;;;;;487450;243;1072;-75
2021/12/30 04:52:20;;;;;;;;;;;21.40;47.10;;;;;;487349;243;1289;-75
2021/12/30 04:54:22;;;;;;;;;;;20.90;47.80;;;;;;487468;243;953;-75
2021/12/30 04:56:23;;;;;;;;;;;21.40;47.20;;;;;;487331;243;1123;-75
2021/12/30 04:58:24;;;;;;;;;;;21.10;47.70;;;;;;487468;243;1297;-75
2021/12/30 05:00:26;;;;;;;;;;;20.90;47.90;;;;;;487420;243;1157;-75
2021/12/30 05:02:37;;;;;;;;;;;21.00;47.70;;;;;;487363;243;1142;-75
2021/12/30 05:04:28;;;;;;;;;;;21.10;47.80;;;;;;486757;244;1412;-75
2021/12/30 05:06:31;;;;;;;;;;;21.10;47.60;;;;;;487229;243;1152;-75
2021/12/30 05:08:31;;;;;;;;;;;20.90;47.90;;;;;;487316;244;2178;-75
2021/12/30 05:10:32;;;;;;;;;;;21.20;47.20;;;;;;487328;243;1246;-75
2021/12/30 05:12:34;;;;;;;;;;;20.90;48.00;;;;;;487331;243;1291;-75
2021/12/30 05:14:35;;;;;;;;;;;20.90;47.90;;;;;;487390;243;985;-75
2021/12/30 05:16:36;;;;;;;;;;;21.10;47.90;;;;;;487270;243;1240;-75
2021/12/30 05:18:38;;;;;;;;;;;21.10;47.90;;;;;;487397;243;1188;-75
2021/12/30 05:20:39;;;;;;;;;;;21.10;47.70;;;;;;487360;241;1298;-75
2021/12/30 05:22:40;;;;;;;;;;;21.30;47.40;;;;;;487243;243;1083;-75
2021/12/30 05:24:41;;;;;;;;;;;21.30;47.20;;;;;;487344;243;1056;-75
2021/12/30 05:26:43;;;;;;;;;;;21.10;47.50;;;;;;487399;243;1159;-75
2021/12/30 05:28:44;;;;;;;;;;;21.20;47.40;;;;;;487368;243;2127;-75
2021/12/30 05:30:45;;;;;;;;;;;21.40;47.30;;;;;;487403;243;1223;-75
2021/12/30 05:32:47;;;;;;;;;;;21.30;47.20;;;;;;487249;243;1134;-75
2021/12/30 05:34:48;;;;;;;;;;;21.20;47.40;;;;;;487359;243;1033;-75
2021/12/30 05:36:49;;;;;;;;;;;21.30;47.40;;;;;;487279;243;1233;-75
2021/12/30 05:38:51;;;;;;;;;;;21.20;47.50;;;;;;487352;243;1128;-75
2021/12/30 05:40:52;;;;;;;;;;;21.30;47.30;;;;;;487289;243;1195;-75
2021/12/30 05:42:53;;;;;;;;;;;21.40;47.10;;;;;;487410;243;1053;-75
2021/12/30 05:44:55;;;;;;;;;;;21.30;47.40;;;;;;487350;244;1015;-75
2021/12/30 05:46:56;;;;;;;;;;;21.40;47.10;;;;;;487221;243;1241;-75
2021/12/30 05:48:57;;;;;;;;;;;21.40;46.90;;;;;;487362;243;2187;-75
2021/12/30 05:51:00;;;;;;;;;;;21.30;47.20;;;;;;487398;243;1186;-75
2021/12/30 05:53:01;;;;;;;;;;;21.40;46.90;;;;;;487455;243;1176;-75
2021/12/30 05:55:02;;;;;;;;;;;21.40;46.80;;;;;;487432;243;932;-75
2021/12/30 05:57:03;;;;;;;;;;;21.50;46.60;;;;;;487421;243;1217;-75
2021/12/30 05:59:04;;;;;;;;;;;21.20;47.30;;;;;;487491;243;1061;-75
2021/12/30 06:01:06;;;;;;;;;;;21.40;47.00;;;;;;487306;243;1214;-75
2021/12/30 06:03:07;;;;;;;;;;;21.40;47.00;;;;;;487428;243;1181;-75
2021/12/30 06:05:08;;;;;;;;;;;21.50;46.40;;;;;;487289;243;947;-75
2021/12/30 06:07:10;;;;;;;;;;;21.50;46.70;;;;;;487386;243;1130;-75
2021/12/30 06:09:11;;;;;;;;;;;21.60;46.70;;;;;;487274;243;2186;-75
2021/12/30 06:11:12;;;;;;;;;;;21.60;46.70;;;;;;487298;243;1137;-75
2021/12/30 06:13:14;;;;;;;;;;;21.70;46.50;;;;;;487315;243;1069;-75
2021/12/30 06:15:15;;;;;;;;;;;21.70;46.20;;;;;;487294;243;942;-75
2021/12/30 06:17:16;;;;;;;;;;;21.80;46.20;;;;;;487404;243;1130;-75
2021/12/30 06:19:18;;;;;;;;;;;21.80;45.90;;;;;;487374;243;1170;-75
2021/12/30 06:21:19;;;;;;;;;;;21.70;46.30;;;;;;487333;243;1258;-75
2021/12/30 06:23:20;;;;;;;;;;;21.60;46.50;;;;;;487296;243;1102;-75
2021/12/30 06:25:22;;;;;;;;;;;21.70;46.40;;;;;;487409;243;1197;-75
2021/12/30 06:27:23;;;;;;;;;;;21.50;46.60;;;;;;487379;243;1116;-75
2021/12/30 06:29:24;;;;;;;;;;;21.40;47.10;;;;;;487447;243;2170;-75
2021/12/30 06:31:26;;;;;;;;;;;21.40;46.90;;;;;;487232;243;1216;-75
2021/12/30 06:33:27;;;;;;;;;;;21.40;46.90;;;;;;487336;243;1152;-75
2021/12/30 06:35:32;;;;;;;;;;;21.40;46.90;;;;;;487328;243;957;-75
2021/12/30 06:37:30;;;;;;;;;;;21.40;47.00;;;;;;487145;244;1404;-75
2021/12/30 06:39:31;;;;;;;;;;;21.30;47.20;;;;;;487438;243;1099;-75
2021/12/30 06:41:33;;;;;;;;;;;21.40;46.90;;;;;;487250;243;1218;-75
2021/12/30 06:43:34;;;;;;;;;;;21.30;47.30;;;;;;487320;243;1096;-75
2021/12/30 06:45:36;;;;;;;;;;;21.20;47.50;;;;;;487298;243;1134;-75
2021/12/30 06:47:37;;;;;;;;;;;21.40;47.10;;;;;;487239;243;1122;-75
2021/12/30 06:49:38;;;;;;;;;;;21.30;47.30;;;;;;487323;243;2135;-75
2021/12/30 06:51:39;;;;;;;;;;;21.20;47.60;;;;;;487253;243;1237;-75
2021/12/30 06:53:41;;;;;;;;;;;21.20;47.60;;;;;;487425;243;1100;-75
2021/12/30 06:55:42;;;;;;;;;;;21.20;47.50;;;;;;487395;243;977;-75
2021/12/30 06:57:43;;;;;;;;;;;21.20;47.60;;;;;;487335;243;1143;-75
2021/12/30 06:59:45;;;;;;;;;;;21.30;47.60;;;;;;487284;243;944;-75
2021/12/30 07:01:46;;;;;;;;;;;21.40;47.20;;;;;;487265;243;1191;-75
2021/12/30 07:03:47;;;;;;;;;;;21.50;47.10;;;;;;487408;243;1323;-75
2021/12/30 07:05:51;;;;;;;;;;;21.30;47.40;;;;;;487296;243;1572;-75
2021/12/30 07:07:50;;;;;;;;;;;21.30;47.60;;;;;;487103;244;2135;-75
2021/12/30 07:09:52;;;;;;;;;;;21.40;47.50;;;;;;487296;243;940;-75
2021/12/30 07:11:54;;;;;;;;;;;21.20;47.60;;;;;;487282;243;1153;-75
2021/12/30 07:13:54;;;;;;;;;;;21.40;47.40;;;;;;487188;244;1257;-75
2021/12/30 07:15:55;;;;;;;;;;;21.10;47.80;;;;;;487202;243;1235;-75
2021/12/30 07:17:57;;;;;;;;;;;21.40;47.50;;;;;;487225;243;1100;-75
2021/12/30 07:19:58;;;;;;;;;;;21.40;47.60;;;;;;487261;243;1286;-75
2021/12/30 07:22:00;;;;;;;;;;;21.30;47.20;;;;;;487156;243;1240;-75
2021/12/30 07:24:01;;;;;;;;;;;21.50;47.30;;;;;;487332;243;1045;-75
2021/12/30 07:26:02;;;;;;;;;;;21.30;47.20;;;;;;487331;243;1188;-75
2021/12/30 07:28:04;;;;;;;;;;;21.50;47.30;;;;;;487255;243;2174;-75
2021/12/30 07:30:05;;;;;;;;;;;21.50;47.00;;;;;;487276;243;1120;-75
2021/12/30 07:32:06;;;;;;;;;;;21.40;47.30;;;;;;487228;243;1200;-75
2021/12/30 07:34:08;;;;;;;;;;;21.30;47.60;;;;;;487317;243;1106;-75
2021/12/30 07:36:09;;;;;;;;;;;21.60;47.20;;;;;;487219;243;1178;-75
2021/12/30 07:38:10;;;;;;;;;;;21.50;47.10;;;;;;487243;243;1124;-75
2021/12/30 07:40:12;;;;;;;;;;;21.50;47.00;;;;;;487306;243;1065;-75
2021/12/30 07:42:13;;;;;;;;;;;21.60;47.10;;;;;;487255;243;1092;-75
2021/12/30 07:44:15;;;;;;;;;;;21.30;47.50;;;;;;487448;243;1053;-75
2021/12/30 07:46:16;;;;;;;;;;;21.60;47.30;;;;;;487216;243;1478;-75
2021/12/30 07:48:18;;;;;;;;;;;21.40;47.60;;;;;;487360;243;2194;-75
2021/12/30 07:50:18;;;;;;;;;;;21.40;47.50;;;;;;487212;244;1557;-75
2021/12/30 07:52:20;;;;;;;;;;;21.30;47.80;;;;;;487152;243;1368;-75
2021/12/30 07:54:21;;;;;;;;;;;21.50;47.30;;;;;;487243;243;1137;-75
2021/12/30 07:56:22;;;;;;;;;;;21.50;47.30;;;;;;487164;243;1244;-75
2021/12/30 07:58:24;;;;;;;;;;;21.40;47.60;;;;;;487188;243;1082;-75
2021/12/30 08:00:25;;;;;;;;;;;21.60;47.30;;;;;;487240;243;1545;-75
2021/12/30 08:02:26;;;;;;;;;;;21.50;47.10;;;;;;487193;243;1235;-75
2021/12/30 08:04:28;;;;;;;;;;;21.50;47.40;;;;;;487337;243;1040;-75
2021/12/30 08:06:29;;;;;;;;;;;21.50;47.40;;;;;;487317;243;1228;-75
2021/12/30 08:08:30;;;;;;;;;;;22.00;46.80;;;;;;487171;243;2182;-75
2021/12/30 08:10:31;;;;;;;;;;;21.60;47.10;;;;;;487152;243;972;-75
2021/12/30 08:12:33;;;;;;;;;;;21.30;47.60;;;;;;487170;243;1345;-75
2021/12/30 08:14:34;;;;;;;;;;;21.30;47.90;;;;;;487308;243;1112;-75
2021/12/30 08:16:35;;;;;;;;;;;21.20;48.10;;;;;;487165;243;1222;-75
2021/12/30 08:18:37;;;;;;;;;;;21.30;47.80;;;;;;487188;243;1115;-75
2021/12/30 08:20:38;;;;;;;;;;;21.60;47.60;;;;;;487205;243;1122;-75
2021/12/30 08:22:39;;;;;;;;;;;21.40;47.70;;;;;;487114;243;1162;-75
2021/12/30 08:24:41;;;;;;;;;;;21.50;47.60;;;;;;487246;243;1061;-75
2021/12/30 08:26:42;;;;;;;;;;;21.70;47.10;;;;;;487251;243;1207;-75
2021/12/30 08:28:43;;;;;;;;;;;21.70;46.90;;;;;;487268;243;2182;-75
2021/12/30 08:30:45;;;;;;;;;;;21.30;47.70;;;;;;487293;243;1104;-75
2021/12/30 08:32:46;;;;;;;;;;;20.90;48.60;;;;;;487155;243;1102;-75
2021/12/30 08:34:47;;;;;;;;;;;20.80;49.30;;;;;;487231;243;1028;-75
2021/12/30 08:36:49;;;;;;;;;;;20.50;49.90;;;;;;487116;243;1133;-75
2021/12/30 08:38:50;;;;;;;;;;;20.50;50.20;;;;;;487397;243;1090;-75
2021/12/30 08:40:51;;;;;;;;;;;20.80;49.50;;;;;;487238;243;1220;-75
2021/12/30 08:42:53;;;;;;;;;;;20.50;50.00;;;;;;487203;243;1041;-75
2021/12/30 08:44:54;;;;;;;;;;;20.50;50.30;;;;;;487162;243;985;-75
2021/12/30 08:46:56;;;;;;;;;;;20.60;50.00;;;;;;487013;243;1224;-75
2021/12/30 08:48:57;;;;;;;;;;;20.50;50.20;;;;;;487014;243;2194;-75
2021/12/30 08:50:58;;;;;;;;;;;20.60;50.30;;;;;;487068;243;1274;-75
2021/12/30 08:53:00;;;;;;;;;;;20.50;50.30;;;;;;487248;243;1164;-75
2021/12/30 08:55:04;;;;;;;;;;;20.40;50.50;;;;;;487255;243;942;-75
2021/12/30 08:57:02;;;;;;;;;;;20.30;50.80;;;;;;486995;244;1966;-75
2021/12/30 08:59:03;;;;;;;;;;;20.20;51.10;;;;;;487233;243;1061;-75
2021/12/30 09:01:05;;;;;;;;;;;20.20;51.10;;;;;;487142;243;1228;-75
2021/12/30 09:03:06;;;;;;;;;;;20.30;50.90;;;;;;487251;243;1211;-74
2021/12/30 09:05:07;;;;;;;;;;;20.70;50.30;;;;;;487163;243;964;-75
2021/12/30 09:07:09;;;;;;;;;;;20.90;49.30;;;;;;487020;243;1225;-75
2021/12/30 09:09:10;;;;;;;;;;;20.80;49.30;;;;;;487120;243;2127;-75
2021/12/30 09:11:11;;;;;;;;;;;21.30;48.90;;;;;;487105;240;1119;-75
2021/12/30 09:13:13;;;;;;;;;;;21.10;48.80;;;;;;487161;243;1092;-75
2021/12/30 09:15:14;;;;;;;;;;;21.00;48.80;;;;;;487165;243;1240;-75
2021/12/30 09:17:16;;;;;;;;;;;21.00;49.00;;;;;;487070;243;1072;-75
2021/12/30 09:19:17;;;;;;;;;;;21.40;48.30;;;;;;487076;243;961;-75
2021/12/30 09:21:18;;;;;;;;;;;21.40;48.40;;;;;;486961;243;1254;-75
2021/12/30 09:23:20;;;;;;;;;;;21.20;48.60;;;;;;487096;243;965;-75
2021/12/30 09:25:23;;;;;;;;;;;21.40;47.80;;;;;;487174;243;1116;-75
2021/12/30 09:27:22;;;;;;;;;;;21.30;48.20;;;;;;487076;244;1527;-75
2021/12/30 09:29:24;;;;;;;;;;;21.30;48.00;;;;;;487213;243;2187;-75
2021/12/30 09:31:25;;;;;;;;;;;21.40;47.90;;;;;;487173;243;1128;-75
2021/12/30 09:33:26;;;;;;;;;;;21.10;48.20;;;;;;487200;243;920;-75
2021/12/30 09:35:28;;;;;;;;;;;21.40;47.90;;;;;;487153;243;1290;-75
2021/12/30 09:37:29;;;;;;;;;;;21.60;47.90;;;;;;487134;243;1333;-75
2021/12/30 09:39:30;;;;;;;;;;;21.20;48.40;;;;;;487242;243;1057;-75
2021/12/30 09:41:31;;;;;;;;;;;21.30;48.20;;;;;;487070;243;1224;-75
2021/12/30 09:43:34;;;;;;;;;;;21.50;48.10;;;;;;487236;243;1021;-75
2021/12/30 09:45:34;;;;;;;;;;;21.30;48.60;;;;;;487079;243;1354;-75
2021/12/30 09:47:36;;;;;;;;;;;21.40;48.10;;;;;;487171;243;1251;-75
2021/12/30 09:49:37;;;;;;;;;;;21.40;47.90;;;;;;487220;243;2124;-75
2021/12/30 09:51:38;;;;;;;;;;;21.20;48.50;;;;;;487214;243;1241;-75
2021/12/30 09:53:40;;;;;;;;;;;21.50;48.10;;;;;;487212;243;1108;-75
2021/12/30 09:55:41;;;;;;;;;;;21.10;48.80;;;;;;487169;243;1175;-75
2021/12/30 09:57:42;;;;;;;;;;;21.30;48.50;;;;;;487307;244;1070;-75
2021/12/30 09:59:43;;;;;;;;;;;21.50;48.50;;;;;;487308;243;1098;-75
2021/12/30 10:01:45;;;;;;;;;;;21.40;48.40;;;;;;487136;243;1198;-75
2021/12/30 10:03:46;;;;;;;;;;;21.30;48.20;;;;;;487164;243;1103;-75
2021/12/30 10:05:48;;;;;;;;;;;21.60;48.10;;;;;;487182;240;1223;-75
2021/12/30 10:07:49;;;;;;;;;;;21.40;48.30;;;;;;487261;243;1166;-75
2021/12/30 10:09:52;;;;;;;;;;;21.50;48.20;;;;;;487151;243;2115;-75
2021/12/30 10:11:52;;;;;;;;;;;21.60;48.40;;;;;;487048;244;1475;-75
2021/12/30 10:13:53;;;;;;;;;;;21.30;48.40;;;;;;487146;243;997;-75
2021/12/30 10:15:54;;;;;;;;;;;21.60;48.20;;;;;;487098;243;1184;-75
2021/12/30 10:17:56;;;;;;;;;;;21.40;48.60;;;;;;487154;243;976;-75
2021/12/30 10:19:57;;;;;;;;;;;21.70;48.20;;;;;;487225;243;994;-75
2021/12/30 10:21:58;;;;;;;;;;;21.40;48.30;;;;;;487074;243;1224;-75
2021/12/30 10:24:00;;;;;;;;;;;21.40;48.60;;;;;;487143;243;955;-75
2021/12/30 10:26:01;;;;;;;;;;;21.20;49.00;;;;;;487060;243;1107;-75
2021/12/30 10:28:02;;;;;;;;;;;21.10;48.70;;;;;;487331;243;1149;-75
2021/12/30 10:30:05;;;;;;;;;;;21.70;48.10;;;;;;487156;243;2120;-75
2021/12/30 10:32:05;;;;;;;;;;;21.40;48.60;;;;;;486962;244;1384;-75
2021/12/30 10:34:06;;;;;;;;;;;21.30;48.50;;;;;;487262;243;967;-75
2021/12/30 10:36:07;;;;;;;;;;;21.40;48.60;;;;;;487194;243;1271;-75
2021/12/30 10:38:11;;;;;;;;;;;21.30;48.90;;;;;;487367;243;1219;-75
2021/12/30 10:40:10;;;;;;;;;;;21.30;48.90;;;;;;487217;243;1423;-75
2021/12/30 10:42:15;;;;;;;;;;;21.10;49.30;;;;;;487306;243;1365;-75
2021/12/30 10:44:13;;;;;;;;;;;21.20;49.10;;;;;;487185;245;1429;-75
2021/12/30 10:46:14;;;;;;;;;;;21.00;49.40;;;;;;487224;240;1315;-75
2021/12/30 10:48:17;;;;;;;;;;;21.10;49.10;;;;;;487323;243;1188;-75
2021/12/30 10:50:17;;;;;;;;;;;21.50;48.80;;;;;;487088;243;2198;-75
2021/12/30 10:52:18;;;;;;;;;;;21.20;49.00;;;;;;487095;243;1059;-75
2021/12/30 10:54:20;;;;;;;;;;;21.50;48.60;;;;;;487124;243;1078;-75
2021/12/30 10:56:21;;;;;;;;;;;21.30;48.90;;;;;;487073;243;1203;-75
2021/12/30 10:58:22;;;;;;;;;;;21.40;48.80;;;;;;487160;243;1101;-75
2021/12/30 11:00:23;;;;;;;;;;;21.20;49.00;;;;;;487135;243;1198;-75
2021/12/30 11:02:26;;;;;;;;;;;21.60;48.20;;;;;;487087;243;1383;-75
2021/12/30 11:04:26;;;;;;;;;;;21.50;48.50;;;;;;487246;243;1431;-75
2021/12/30 11:06:28;;;;;;;;;;;21.40;48.90;;;;;;487025;243;1212;-75
2021/12/30 11:08:29;;;;;;;;;;;21.30;48.90;;;;;;487107;243;1348;-75
2021/12/30 11:10:30;;;;;;;;;;;21.50;48.80;;;;;;487157;243;2115;-75
2021/12/30 11:12:31;;;;;;;;;;;21.40;49.10;;;;;;487193;243;1073;-75
2021/12/30 11:14:33;;;;;;;;;;;21.40;49.10;;;;;;487254;243;952;-75
2021/12/30 11:16:34;;;;;;;;;;;21.40;48.40;;;;;;487211;243;1140;-75
2021/12/30 11:18:35;;;;;;;;;;;21.30;49.00;;;;;;487203;243;1126;-75
2021/12/30 11:20:37;;;;;;;;;;;21.50;48.80;;;;;;487162;243;1154;-75
2021/12/30 11:22:38;;;;;;;;;;;21.20;49.30;;;;;;487260;243;1099;-75
2021/12/30 11:24:40;;;;;;;;;;;21.40;49.10;;;;;;487303;243;1180;-75
2021/12/30 11:26:41;;;;;;;;;;;21.40;49.20;;;;;;487155;243;1240;-75
2021/12/30 11:28:43;;;;;;;;;;;21.30;49.10;;;;;;487220;243;948;-75
2021/12/30 11:30:44;;;;;;;;;;;21.30;49.00;;;;;;487134;243;2182;-75
2021/12/30 11:32:48;;;;;;;;;;;21.20;49.40;;;;;;487112;243;1078;-75
2021/12/30 11:34:49;;;;;;;;;;;21.30;49.40;;;;;;487160;243;1425;-75
2021/12/30 11:36:50;;;;;;;;;;;21.50;49.00;;;;;;487026;243;1106;-75
2021/12/30 11:38:51;;;;;;;;;;;21.40;49.00;;;;;;487083;243;1158;-75
2021/12/30 11:40:53;;;;;;;;;;;21.30;49.00;;;;;;487130;243;1130;-75
2021/12/30 11:42:56;;;;;;;;;;;21.40;49.30;;;;;;487104;243;1178;-75
2021/12/30 11:44:55;;;;;;;;;;;21.30;49.10;;;;;;487107;243;1347;-75
2021/12/30 11:46:56;;;;;;;;;;;21.10;49.40;;;;;;487076;243;1083;-75
2021/12/30 11:48:58;;;;;;;;;;;21.30;49.30;;;;;;487362;243;1189;-74
2021/12/30 11:50:59;;;;;;;;;;;21.30;49.30;;;;;;487143;242;2190;-75
2021/12/30 11:53:00;;;;;;;;;;;21.20;49.10;;;;;;487177;243;1144;-75
2021/12/30 11:55:02;;;;;;;;;;;21.50;48.80;;;;;;487427;243;1059;-75
2021/12/30 11:57:03;;;;;;;;;;;21.20;49.30;;;;;;487288;243;1168;-75